createdAt,value
2019-05-20T00:00:28.225Z,11.40
2019-05-20T00:02:54.541Z,11.40
2019-05-20T00:05:20.773Z,11.30
2019-05-20T00:07:47.015Z,11.30
2019-05-20T00:10:13.346Z,11.20
2019-05-20T00:12:39.565Z,11.20
2019-05-20T00:15:06.304Z,11.20
2019-05-20T00:17:32.539Z,11.20
2019-05-20T00:19:58.976Z,11.20
2019-05-20T00:22:25.300Z,11.10
2019-05-20T00:24:51.530Z,11.10
2019-05-20T00:27:17.753Z,11.10
2019-05-20T00:29:43.981Z,11.10
2019-05-20T00:32:10.205Z,11.00
2019-05-20T00:34:36.416Z,11.00
2019-05-20T00:37:02.748Z,11.00
2019-05-20T00:39:28.957Z,11.00
2019-05-20T00:41:55.183Z,11.10
2019-05-20T00:44:21.523Z,11.10
2019-05-20T00:46:47.736Z,11.10
2019-05-20T00:49:14.063Z,11.10
2019-05-20T00:51:40.389Z,11.00
2019-05-20T00:54:06.801Z,11.00
2019-05-20T00:56:35.327Z,11.00
2019-05-20T00:59:01.666Z,11.00
2019-05-20T01:01:27.883Z,10.90
2019-05-20T01:03:54.593Z,10.90
2019-05-20T01:06:20.821Z,10.90
2019-05-20T01:08:47.041Z,10.80
2019-05-20T01:11:13.314Z,10.80
2019-05-20T01:13:39.593Z,10.80
2019-05-20T01:16:06.999Z,10.80
2019-05-20T01:18:34.217Z,10.80
2019-05-20T01:21:00.443Z,10.80
2019-05-20T01:23:26.665Z,10.80
2019-05-20T01:25:52.881Z,10.70
2019-05-20T01:28:19.126Z,10.70
2019-05-20T01:30:45.350Z,10.60
2019-05-20T01:33:14.209Z,10.60
2019-05-20T01:35:39.686Z,10.50
2019-05-20T01:38:05.897Z,10.40
2019-05-20T01:40:32.220Z,10.30
2019-05-20T01:42:58.461Z,10.20
2019-05-20T01:45:24.681Z,10.20
2019-05-20T01:47:50.909Z,10.20
2019-05-20T01:50:17.148Z,10.20
2019-05-20T01:52:43.360Z,10.20
2019-05-20T01:55:09.968Z,10.10
2019-05-20T01:57:36.197Z,10.10
2019-05-20T02:00:06.025Z,10.10
2019-05-20T02:02:33.649Z,10.10
2019-05-20T02:04:59.900Z,10.10
2019-05-20T02:07:26.313Z,10.00
2019-05-20T02:09:52.526Z,10.00
2019-05-20T02:12:18.770Z,10.10
2019-05-20T02:14:59.072Z,10.10
2019-05-20T02:17:26.417Z,10.10
2019-05-20T02:19:52.630Z,10.20
2019-05-20T02:22:18.862Z,10.20
2019-05-20T02:24:45.184Z,10.20
2019-05-20T02:27:11.407Z,10.10
2019-05-20T02:29:37.705Z,10.10
2019-05-20T02:32:05.213Z,10.00
2019-05-20T02:34:31.429Z,10.00
2019-05-20T02:36:57.645Z,9.90
2019-05-20T02:39:26.490Z,9.90
2019-05-20T02:41:51.942Z,9.90
2019-05-20T02:44:18.258Z,9.90
2019-05-20T02:46:44.505Z,9.90
2019-05-20T02:49:10.926Z,9.90
2019-05-20T02:51:37.147Z,9.90
2019-05-20T02:54:03.499Z,9.80
2019-05-20T02:56:30.018Z,9.80
2019-05-20T02:58:56.634Z,9.70
2019-05-20T03:01:23.587Z,9.70
2019-05-20T03:04:08.011Z,9.60
2019-05-20T03:06:18.021Z,9.60
2019-05-20T03:08:44.375Z,9.60
2019-05-20T03:11:10.670Z,9.60
2019-05-20T03:13:36.887Z,9.60
2019-05-20T03:16:03.221Z,9.60
2019-05-20T03:18:29.650Z,9.60
2019-05-20T03:20:55.961Z,9.60
2019-05-20T03:23:22.194Z,9.60
2019-05-20T03:25:48.511Z,9.60
2019-05-20T03:28:14.737Z,9.60
2019-05-20T03:30:42.058Z,9.60
2019-05-20T03:33:08.383Z,9.70
2019-05-20T03:35:34.611Z,9.70
2019-05-20T03:38:00.958Z,9.70
2019-05-20T03:40:27.170Z,9.70
2019-05-20T03:42:53.458Z,9.70
2019-05-20T03:45:19.794Z,9.80
2019-05-20T03:47:46.022Z,9.80
2019-05-20T03:50:12.450Z,9.90
2019-05-20T03:52:38.781Z,10.00
2019-05-20T03:55:05.893Z,10.20
2019-05-20T03:57:32.115Z,10.20
2019-05-20T03:59:58.453Z,10.30
2019-05-20T04:02:24.778Z,10.50
2019-05-20T04:05:01.929Z,10.60
2019-05-20T04:07:20.234Z,10.60
2019-05-20T04:09:46.442Z,10.70
2019-05-20T04:12:12.667Z,11.00
2019-05-20T04:14:38.909Z,11.60
2019-05-20T04:17:05.117Z,12.30
2019-05-20T04:19:31.325Z,13.10
2019-05-20T04:21:57.589Z,13.60
2019-05-20T04:24:23.910Z,14.10
2019-05-20T04:26:53.937Z,14.40
2019-05-20T04:29:20.886Z,14.80
2019-05-20T04:31:47.708Z,15.20
2019-05-20T04:34:14.153Z,15.50
2019-05-20T04:36:40.457Z,15.70
2019-05-20T04:39:06.671Z,15.80
2019-05-20T04:41:35.657Z,16.00
2019-05-20T04:44:01.247Z,16.10
2019-05-20T04:46:27.968Z,16.10
2019-05-20T04:48:54.274Z,16.20
2019-05-20T04:51:20.506Z,16.20
2019-05-20T04:53:46.814Z,16.40
2019-05-20T04:56:13.121Z,16.40
2019-05-20T04:58:39.346Z,16.30
2019-05-20T05:01:05.572Z,16.40
2019-05-20T05:03:31.889Z,16.50
2019-05-20T05:05:58.317Z,16.60
2019-05-20T05:08:25.025Z,16.90
2019-05-20T05:10:51.534Z,16.90
2019-05-20T05:13:18.463Z,17.00
2019-05-20T05:15:45.037Z,17.00
2019-05-20T05:18:11.622Z,17.10
2019-05-20T05:20:38.049Z,17.10
2019-05-20T05:23:04.370Z,16.80
2019-05-20T05:25:30.677Z,16.80
2019-05-20T05:27:58.022Z,16.90
2019-05-20T05:30:24.345Z,17.00
2019-05-20T05:32:50.689Z,17.20
2019-05-20T05:35:19.349Z,17.10
2019-05-20T05:37:45.665Z,16.80
2019-05-20T05:40:12.721Z,16.80
2019-05-20T05:42:39.032Z,16.70
2019-05-20T05:45:07.072Z,16.60
2019-05-20T05:47:33.397Z,16.60
2019-05-20T05:49:59.641Z,16.50
2019-05-20T05:52:27.057Z,16.60
2019-05-20T05:54:53.282Z,16.70
2019-05-20T05:57:19.531Z,16.90
2019-05-20T05:59:45.752Z,16.90
2019-05-20T06:02:12.092Z,17.00
2019-05-20T06:04:38.420Z,16.80
2019-05-20T06:07:04.819Z,16.80
2019-05-20T06:09:31.043Z,16.60
2019-05-20T06:11:57.371Z,16.40
2019-05-20T06:14:23.588Z,16.10
2019-05-20T06:16:49.799Z,16.00
2019-05-20T06:19:16.101Z,15.90
2019-05-20T06:21:42.323Z,15.80
2019-05-20T06:24:08.633Z,15.80
2019-05-20T06:26:34.865Z,15.70
2019-05-20T06:29:03.018Z,15.70
2019-05-20T06:31:29.258Z,15.60
2019-05-20T06:33:55.678Z,15.70
2019-05-20T06:36:26.819Z,15.70
2019-05-20T06:38:53.941Z,15.70
2019-05-20T06:41:20.270Z,15.60
2019-05-20T06:43:46.489Z,15.60
2019-05-20T06:46:12.721Z,15.50
2019-05-20T06:48:38.953Z,15.30
2019-05-20T06:51:05.244Z,15.20
2019-05-20T06:53:31.478Z,15.00
2019-05-20T06:55:57.789Z,14.80
2019-05-20T06:58:24.016Z,14.70
2019-05-20T07:00:50.351Z,14.50
2019-05-20T07:03:16.666Z,14.50
2019-05-20T07:05:42.885Z,14.30
2019-05-20T07:08:09.111Z,14.30
2019-05-20T07:10:35.365Z,14.20
2019-05-20T07:13:01.888Z,14.20
2019-05-20T07:15:28.422Z,14.10
2019-05-20T07:17:54.841Z,14.10
2019-05-20T07:20:21.061Z,14.10
2019-05-20T07:22:55.913Z,14.10
2019-05-20T07:25:15.700Z,14.10
2019-05-20T07:27:42.041Z,14.10
2019-05-20T07:30:09.330Z,14.00
2019-05-20T07:32:35.643Z,13.90
2019-05-20T07:35:04.105Z,13.70
2019-05-20T07:37:30.561Z,13.60
2019-05-20T07:39:56.889Z,13.70
2019-05-20T07:42:23.206Z,13.70
2019-05-20T07:44:49.521Z,13.80
2019-05-20T07:47:15.750Z,13.90
2019-05-20T07:49:42.177Z,14.00
2019-05-20T07:52:09.110Z,14.00
2019-05-20T07:54:36.912Z,13.90
2019-05-20T07:57:06.946Z,14.00
2019-05-20T07:59:35.663Z,14.10
2019-05-20T08:02:02.193Z,14.20
2019-05-20T08:04:28.549Z,14.20
2019-05-20T08:06:54.839Z,14.20
2019-05-20T08:09:21.223Z,14.30
2019-05-20T08:11:47.639Z,14.40
2019-05-20T08:14:14.267Z,14.40
2019-05-20T08:16:40.593Z,14.40
2019-05-20T08:19:07.017Z,14.50
2019-05-20T08:21:33.334Z,14.50
2019-05-20T08:23:59.570Z,14.60
2019-05-20T08:26:25.907Z,14.50
2019-05-20T08:28:52.307Z,14.40
2019-05-20T08:31:18.554Z,14.40
2019-05-20T08:33:44.768Z,14.40
2019-05-20T08:36:10.981Z,14.50
2019-05-20T08:38:37.439Z,14.60
2019-05-20T08:41:03.667Z,14.60
2019-05-20T08:43:30.983Z,14.60
2019-05-20T08:45:57.338Z,14.70
2019-05-20T08:48:23.651Z,14.80
2019-05-20T08:50:49.964Z,14.80
2019-05-20T08:53:16.204Z,14.80
2019-05-20T08:55:42.460Z,14.80
2019-05-20T08:58:08.849Z,14.80
2019-05-20T09:00:35.289Z,14.80
2019-05-20T09:03:01.530Z,14.80
2019-05-20T09:05:28.576Z,14.80
2019-05-20T09:08:02.787Z,14.80
2019-05-20T09:10:23.164Z,14.90
2019-05-20T09:12:49.608Z,14.90
2019-05-20T09:15:16.213Z,14.80
2019-05-20T09:17:42.752Z,14.80
2019-05-20T09:20:09.849Z,14.70
2019-05-20T09:22:36.597Z,14.70
2019-05-20T09:25:04.167Z,14.70
2019-05-20T09:27:30.935Z,14.70
2019-05-20T09:29:57.273Z,14.70
2019-05-20T09:32:23.692Z,14.70
2019-05-20T09:34:50.015Z,14.70
2019-05-20T09:37:16.341Z,14.70
2019-05-20T09:39:42.660Z,14.80
2019-05-20T09:42:08.975Z,14.80
2019-05-20T09:44:35.197Z,14.70
2019-05-20T09:47:01.423Z,14.70
2019-05-20T09:49:28.800Z,14.70
2019-05-20T09:51:55.128Z,14.70
2019-05-20T09:54:21.400Z,14.60
2019-05-20T09:56:47.710Z,14.70
2019-05-20T09:59:16.340Z,14.60
2019-05-20T10:01:42.108Z,14.60
2019-05-20T10:04:08.415Z,14.60
2019-05-20T10:06:34.658Z,14.60
2019-05-20T10:09:00.890Z,14.60
2019-05-20T10:11:27.197Z,14.50
2019-05-20T10:13:53.434Z,14.40
2019-05-20T10:16:19.912Z,14.40
2019-05-20T10:18:46.245Z,14.30
2019-05-20T10:21:12.496Z,14.30
2019-05-20T10:23:38.813Z,14.30
2019-05-20T10:26:05.229Z,14.20
2019-05-20T10:28:31.506Z,14.20
2019-05-20T10:30:57.725Z,14.10
2019-05-20T10:33:24.042Z,14.20
2019-05-20T10:35:50.270Z,14.20
2019-05-20T10:38:16.501Z,14.20
2019-05-20T10:40:42.835Z,14.40
2019-05-20T10:43:09.191Z,14.40
2019-05-20T10:45:35.427Z,14.40
2019-05-20T10:48:02.994Z,14.50
2019-05-20T10:50:29.381Z,14.50
2019-05-20T10:52:55.821Z,14.50
2019-05-20T10:55:22.137Z,14.40
2019-05-20T10:57:48.390Z,14.40
2019-05-20T11:00:15.306Z,14.40
2019-05-20T11:02:41.700Z,14.30
2019-05-20T11:05:09.546Z,14.30
2019-05-20T11:07:36.959Z,14.40
2019-05-20T11:10:05.157Z,14.30
2019-05-20T11:12:31.423Z,14.40
2019-05-20T11:14:57.762Z,14.40
2019-05-20T11:17:24.053Z,14.30
2019-05-20T11:19:50.306Z,14.30
2019-05-20T11:22:16.621Z,14.20
2019-05-20T11:24:42.837Z,14.20
2019-05-20T11:27:09.082Z,14.10
2019-05-20T11:29:35.503Z,14.10
2019-05-20T11:32:01.823Z,14.10
2019-05-20T11:34:28.171Z,14.10
2019-05-20T11:36:54.817Z,14.00
2019-05-20T11:39:32.753Z,14.00
2019-05-20T11:41:53.329Z,14.00
2019-05-20T11:44:17.310Z,14.10
2019-05-20T11:46:43.549Z,14.10
2019-05-20T11:49:09.887Z,14.20
2019-05-20T11:51:36.209Z,14.30
2019-05-20T11:54:02.634Z,14.30
2019-05-20T11:56:29.990Z,14.30
2019-05-20T11:58:56.309Z,14.40
2019-05-20T12:01:22.630Z,14.50
2019-05-20T12:03:48.949Z,14.50
2019-05-20T12:06:15.626Z,14.50
2019-05-20T12:08:43.009Z,14.60
2019-05-20T12:11:09.234Z,14.70
2019-05-20T12:13:35.457Z,14.70
2019-05-20T12:16:02.783Z,14.70
2019-05-20T12:18:29.121Z,14.70
2019-05-20T12:20:55.333Z,14.70
2019-05-20T12:23:21.590Z,14.60
2019-05-20T12:25:47.833Z,14.60
2019-05-20T12:28:14.054Z,14.60
2019-05-20T12:30:40.390Z,14.60
2019-05-20T12:33:18.474Z,14.60
2019-05-20T12:35:34.865Z,14.50
2019-05-20T12:38:01.085Z,14.50
2019-05-20T12:40:27.334Z,14.50
2019-05-20T12:42:53.549Z,14.50
2019-05-20T12:45:19.769Z,14.50
2019-05-20T12:47:46.014Z,14.50
2019-05-20T12:50:13.922Z,14.60
2019-05-20T12:52:40.157Z,14.60
2019-05-20T12:55:09.459Z,14.60
2019-05-20T12:57:35.319Z,14.60
2019-05-20T13:00:07.168Z,14.70
2019-05-20T13:02:33.709Z,14.70
2019-05-20T13:04:59.993Z,14.70
2019-05-20T13:07:26.218Z,14.70
2019-05-20T13:09:52.541Z,14.70
2019-05-20T13:12:18.797Z,14.80
2019-05-20T13:14:45.021Z,14.80
2019-05-20T13:17:11.483Z,14.80
2019-05-20T13:19:37.901Z,14.80
2019-05-20T13:22:04.306Z,14.80
2019-05-20T13:24:30.577Z,14.80
2019-05-20T13:26:56.790Z,14.80
2019-05-20T13:29:23.002Z,14.90
2019-05-20T13:31:49.242Z,14.80
2019-05-20T13:34:18.378Z,14.80
2019-05-20T13:36:43.745Z,14.80
2019-05-20T13:39:10.030Z,14.80
2019-05-20T13:41:36.372Z,14.80
2019-05-20T13:44:02.858Z,14.80
2019-05-20T13:46:29.200Z,14.90
2019-05-20T13:48:55.417Z,14.90
2019-05-20T13:51:21.773Z,14.80
2019-05-20T13:53:48.197Z,14.70
2019-05-20T13:56:14.409Z,14.70
2019-05-20T13:58:40.732Z,14.70
2019-05-20T14:01:07.070Z,14.70
2019-05-20T14:03:33.389Z,14.70
2019-05-20T14:05:59.601Z,14.70
2019-05-20T14:08:25.893Z,14.70
2019-05-20T14:11:03.513Z,14.60
2019-05-20T14:13:20.228Z,14.60
2019-05-20T14:15:46.467Z,14.60
2019-05-20T14:18:12.783Z,14.60
2019-05-20T14:20:39.097Z,14.60
2019-05-20T14:23:05.353Z,14.70
2019-05-20T14:25:31.675Z,14.70
2019-05-20T14:27:57.982Z,14.60
2019-05-20T14:30:24.325Z,14.60
2019-05-20T14:32:50.549Z,14.60
2019-05-20T14:35:16.768Z,14.60
2019-05-20T14:37:42.993Z,14.60
2019-05-20T14:40:09.910Z,14.70
2019-05-20T14:42:36.227Z,14.70
2019-05-20T14:45:03.981Z,14.70
2019-05-20T14:47:30.293Z,14.70
2019-05-20T14:49:56.527Z,14.70
2019-05-20T14:52:22.853Z,14.60
2019-05-20T14:54:49.073Z,14.60
2019-05-20T14:57:15.289Z,14.60
2019-05-20T14:59:41.517Z,14.50
2019-05-20T15:02:07.846Z,14.40
2019-05-20T15:04:34.171Z,14.40
2019-05-20T15:07:00.515Z,14.40
2019-05-20T15:09:27.897Z,14.40
2019-05-20T15:11:54.189Z,14.40
2019-05-20T15:14:21.548Z,14.30
2019-05-20T15:16:47.770Z,14.40
2019-05-20T15:19:13.985Z,14.40
2019-05-20T15:21:40.249Z,14.40
2019-05-20T15:24:06.561Z,14.50
2019-05-20T15:26:32.893Z,14.50
2019-05-20T15:28:59.146Z,14.50
2019-05-20T15:31:25.361Z,14.50
2019-05-20T15:33:51.588Z,14.50
2019-05-20T15:36:17.950Z,14.50
2019-05-20T15:38:44.241Z,14.50
2019-05-20T15:41:10.545Z,14.50
2019-05-20T15:43:36.837Z,14.50
2019-05-20T15:46:03.246Z,14.50
2019-05-20T15:48:29.470Z,14.40
2019-05-20T15:50:55.801Z,14.30
2019-05-20T15:53:22.025Z,14.30
2019-05-20T15:55:48.240Z,14.20
2019-05-20T15:58:14.578Z,14.20
2019-05-20T16:00:40.790Z,14.20
2019-05-20T16:03:07.005Z,14.20
2019-05-20T16:05:33.334Z,14.20
2019-05-20T16:07:59.646Z,14.20
2019-05-20T16:10:25.862Z,14.20
2019-05-20T16:12:52.088Z,14.30
2019-05-20T16:15:18.480Z,14.30
2019-05-20T16:17:48.315Z,14.30
2019-05-20T16:20:13.216Z,14.30
2019-05-20T16:22:39.429Z,14.30
2019-05-20T16:25:06.454Z,14.30
2019-05-20T16:27:33.008Z,14.20
2019-05-20T16:30:06.127Z,14.20
2019-05-20T16:32:27.425Z,14.20
2019-05-20T16:34:53.712Z,14.20
2019-05-20T16:37:19.966Z,14.10
2019-05-20T16:39:46.181Z,14.10
2019-05-20T16:42:12.466Z,14.10
2019-05-20T16:44:38.693Z,14.10
2019-05-20T16:47:05.083Z,14.10
2019-05-20T16:49:31.501Z,14.10
2019-05-20T16:51:57.741Z,14.10
2019-05-20T16:54:24.048Z,14.20
2019-05-20T16:56:50.276Z,14.20
2019-05-20T16:59:16.490Z,14.20
2019-05-20T17:01:46.391Z,14.20
2019-05-20T17:04:10.873Z,14.20
2019-05-20T17:06:37.085Z,14.20
2019-05-20T17:09:04.209Z,14.10
2019-05-20T17:11:30.534Z,14.10
2019-05-20T17:13:56.745Z,14.10
2019-05-20T17:16:23.074Z,14.10
2019-05-20T17:18:50.377Z,14.10
2019-05-20T17:21:16.590Z,14.10
2019-05-20T17:23:42.805Z,14.10
2019-05-20T17:26:09.045Z,14.10
2019-05-20T17:28:35.263Z,14.10
2019-05-20T17:31:01.481Z,14.00
2019-05-20T17:33:28.822Z,14.00
2019-05-20T17:35:55.129Z,14.00
2019-05-20T17:38:21.381Z,14.00
2019-05-20T17:40:47.622Z,14.00
2019-05-20T17:43:13.934Z,14.00
2019-05-20T17:45:41.510Z,14.00
2019-05-20T17:48:08.105Z,14.00
2019-05-20T17:50:34.321Z,13.90
2019-05-20T17:53:00.540Z,14.00
2019-05-20T17:55:27.102Z,14.00
2019-05-20T17:57:53.441Z,14.00
2019-05-20T18:00:21.657Z,14.00
2019-05-20T18:02:47.757Z,14.00
2019-05-20T18:05:15.383Z,14.00
2019-05-20T18:07:41.702Z,14.00
2019-05-20T18:10:09.195Z,14.00
2019-05-20T18:12:35.506Z,13.90
2019-05-20T18:15:03.625Z,13.90
2019-05-20T18:17:29.869Z,13.90
2019-05-20T18:19:56.083Z,13.90
2019-05-20T18:22:22.302Z,13.90
2019-05-20T18:24:48.545Z,13.90
2019-05-20T18:27:14.776Z,14.00
2019-05-20T18:29:41.005Z,13.90
2019-05-20T18:32:07.250Z,13.90
2019-05-20T18:34:33.473Z,13.90
2019-05-20T18:36:59.698Z,13.90
2019-05-20T18:39:26.038Z,13.90
2019-05-20T18:41:52.353Z,13.90
2019-05-20T18:44:18.685Z,13.90
2019-05-20T18:46:44.939Z,13.90
2019-05-20T18:49:11.245Z,13.90
2019-05-20T18:51:37.462Z,13.90
2019-05-20T18:54:03.792Z,13.80
2019-05-20T18:56:30.005Z,13.90
2019-05-20T18:58:56.232Z,13.90
2019-05-20T19:01:22.473Z,13.80
2019-05-20T19:03:48.702Z,13.80
2019-05-20T19:06:15.010Z,13.80
2019-05-20T19:08:41.452Z,13.80
2019-05-20T19:11:07.874Z,13.90
2019-05-20T19:13:34.099Z,13.90
2019-05-20T19:16:00.359Z,13.90
2019-05-20T19:18:26.777Z,13.90
2019-05-20T19:20:53.093Z,13.90
2019-05-20T19:23:19.369Z,13.90
2019-05-20T19:25:45.581Z,13.90
2019-05-20T19:28:11.797Z,13.80
2019-05-20T19:30:38.253Z,13.80
2019-05-20T19:33:04.957Z,13.80
2019-05-20T19:35:31.442Z,13.80
2019-05-20T19:37:57.879Z,13.80
2019-05-20T19:40:24.188Z,13.80
2019-05-20T19:42:50.598Z,13.90
2019-05-20T19:45:17.093Z,13.90
2019-05-20T19:47:43.513Z,13.80
2019-05-20T19:50:10.138Z,13.80
2019-05-20T19:52:36.566Z,13.80
2019-05-20T19:55:04.978Z,13.80
2019-05-20T19:57:31.305Z,13.90
2019-05-20T19:59:57.545Z,13.90
2019-05-20T20:02:23.782Z,14.00
2019-05-20T20:04:50.208Z,13.90
2019-05-20T20:07:16.487Z,13.90
2019-05-20T20:09:42.793Z,13.90
2019-05-20T20:12:09.113Z,13.80
2019-05-20T20:14:35.341Z,13.90
2019-05-20T20:17:01.562Z,13.80
2019-05-20T20:19:27.881Z,13.80
2019-05-20T20:21:54.117Z,13.80
2019-05-20T20:24:20.341Z,13.90
2019-05-20T20:26:46.569Z,13.90
2019-05-20T20:29:12.813Z,13.90
2019-05-20T20:31:39.113Z,13.90
2019-05-20T20:34:05.325Z,13.90
2019-05-20T20:36:31.561Z,13.80
2019-05-20T20:38:57.774Z,13.90
2019-05-20T20:41:23.985Z,13.90
2019-05-20T20:43:50.329Z,14.00
2019-05-20T20:46:16.538Z,14.00
2019-05-20T20:48:42.760Z,14.00
2019-05-20T20:51:09.105Z,13.90
2019-05-20T20:53:37.854Z,14.00
2019-05-20T20:56:04.089Z,14.00
2019-05-20T20:58:30.323Z,14.00
2019-05-20T21:00:56.557Z,13.90
2019-05-20T21:03:22.772Z,13.90
2019-05-20T21:05:49.021Z,13.90
2019-05-20T21:08:15.233Z,13.80
2019-05-20T21:10:41.513Z,13.80
2019-05-20T21:13:07.792Z,13.80
2019-05-20T21:15:34.073Z,13.80
2019-05-20T21:18:00.301Z,13.90
2019-05-20T21:20:26.537Z,13.90
2019-05-20T21:22:52.853Z,13.90
2019-05-20T21:25:19.073Z,13.90
2019-05-20T21:27:45.397Z,13.90
2019-05-20T21:30:11.822Z,14.00
2019-05-20T21:32:38.132Z,14.00
2019-05-20T21:35:05.669Z,14.00
2019-05-20T21:37:31.985Z,13.90
2019-05-20T21:39:58.203Z,13.90
2019-05-20T21:42:24.431Z,14.00
2019-05-20T21:44:50.671Z,14.00
2019-05-20T21:47:16.997Z,14.00
2019-05-20T21:49:43.246Z,14.00
2019-05-20T21:52:10.558Z,14.00
2019-05-20T21:54:36.784Z,14.00
2019-05-20T21:57:03.046Z,14.00
2019-05-20T21:59:29.361Z,14.00
2019-05-20T22:01:55.595Z,14.00
2019-05-20T22:04:22.112Z,13.90
2019-05-20T22:06:48.547Z,13.90
2019-05-20T22:09:14.840Z,13.80
2019-05-20T22:11:41.066Z,13.80
2019-05-20T22:14:07.282Z,13.70
2019-05-20T22:16:33.801Z,13.80
2019-05-20T22:19:01.156Z,13.80
2019-05-20T22:21:29.378Z,13.80
2019-05-20T22:24:01.638Z,13.80
2019-05-20T22:26:27.856Z,13.80
2019-05-20T22:28:54.086Z,13.90
2019-05-20T22:31:20.330Z,13.90
2019-05-20T22:33:46.626Z,13.90
2019-05-20T22:36:12.837Z,13.90
2019-05-20T22:38:39.066Z,13.90
2019-05-20T22:41:05.281Z,13.90
2019-05-20T22:43:31.508Z,13.90
2019-05-20T22:45:57.745Z,13.90
2019-05-20T22:48:24.082Z,13.90
2019-05-20T22:50:50.397Z,13.90
2019-05-20T22:53:16.645Z,13.90
2019-05-20T22:55:42.858Z,13.80
2019-05-20T22:58:09.081Z,13.80
2019-05-20T23:00:35.327Z,13.80
2019-05-20T23:03:01.644Z,13.80
2019-05-20T23:05:27.869Z,13.80
2019-05-20T23:07:54.211Z,13.80
2019-05-20T23:10:20.421Z,13.80
2019-05-20T23:12:46.633Z,13.80
2019-05-20T23:15:13.081Z,13.80
2019-05-20T23:17:39.294Z,13.80
2019-05-20T23:20:06.225Z,13.80
2019-05-20T23:22:32.573Z,13.80
2019-05-20T23:24:58.794Z,13.80
2019-05-20T23:27:25.006Z,13.80
2019-05-20T23:29:52.345Z,13.80
2019-05-20T23:32:18.710Z,13.80
2019-05-20T23:34:44.968Z,13.80
2019-05-20T23:37:11.209Z,13.80
2019-05-20T23:39:37.433Z,13.80
2019-05-20T23:42:03.644Z,13.70
2019-05-20T23:44:29.872Z,13.70
2019-05-20T23:46:56.090Z,13.70
2019-05-20T23:49:22.446Z,13.70
2019-05-20T23:51:48.913Z,13.70
2019-05-20T23:54:15.129Z,13.70
2019-05-20T23:56:41.353Z,13.70
2019-05-20T23:59:07.598Z,13.70
